Time;durP1;ratioP1;P1;durP2;ratioP2;P2;SDS_P1;SDS_P2;PMS_P1;PMS_P2;Temp;Humidity;BMP_temperature;BMP_pressure;BME280_temperature;BME280_humidity;BME280_pressure;Samples;Min_cycle;Max_cycle;Signal;HPM_P1;HPM_P2
2023/07/09 00:00:32;;;;;;;9.87;6.50;;;;;;;-145.18;100.00;46558.81;5074180;28;20078;-65
2023/07/09 00:02:58;;;;;;;9.60;6.63;;;;;;;-145.18;100.00;46547.09;5074295;28;20400;-64
2023/07/09 00:05:24;;;;;;;13.10;6.40;;;;;;;-145.18;100.00;46535.38;5068799;28;20036;-65
2023/07/09 00:07:50;;;;;;;15.90;7.10;;;;;;;-145.18;100.00;46529.53;5074361;28;20020;-64
2023/07/09 00:10:18;;;;;;;12.53;7.73;;;;;;;-145.18;100.00;46533.44;5073505;28;20100;-64
2023/07/09 00:12:43;;;;;;;11.97;7.37;;;;;;;-145.18;100.00;46531.47;5073840;28;20032;-64
2023/07/09 00:15:12;;;;;;;14.10;7.47;;;;;;;-145.18;100.00;46525.63;5073556;28;20033;-65
2023/07/09 00:17:39;;;;;;;11.77;7.13;;;;;;;-145.18;100.00;46529.53;5074111;28;20035;-64
2023/07/09 00:20:13;;;;;;;10.27;6.50;;;;;;;-145.18;100.00;46527.56;5073969;28;20032;-64
2023/07/09 00:22:39;;;;;;;12.67;7.30;;;;;;;-145.18;100.00;46531.47;5063274;28;20029;-64
2023/07/09 00:25:04;;;;;;;9.97;7.00;;;;;;;-145.18;100.00;46535.38;5073105;28;20567;-64
2023/07/09 00:27:32;;;;;;;9.37;7.03;;;;;;;-145.18;100.00;46535.38;5073715;28;20032;-64
2023/07/09 00:29:58;;;;;;;12.37;6.37;;;;;;;-145.18;100.00;46545.16;5055819;28;20451;-64
2023/07/09 00:32:25;;;;;;;11.70;6.13;;;;;;;-145.18;100.00;46623.28;5055585;28;20056;-64
2023/07/09 00:34:53;;;;;;;11.73;7.27;;;;;;;-145.18;100.00;46654.53;5073962;28;20059;-64
2023/07/09 00:37:21;;;;;;;10.63;7.70;;;;;;;-145.18;100.00;46660.41;5073407;28;20162;-65
2023/07/09 00:39:47;;;;;;;12.90;7.97;;;;;;;-145.18;100.00;46660.41;5073639;28;20031;-64
2023/07/09 00:42:18;;;;;;;12.77;7.33;;;;;;;-145.18;100.00;46646.72;5073306;28;20060;-64
2023/07/09 00:44:54;;;;;;;11.20;7.00;;;;;;;-145.18;100.00;46652.59;5072701;28;20542;-64
2023/07/09 00:47:52;;;;;;;10.20;7.00;;;;;;;-145.18;100.00;46656.50;5073476;28;20020;-64
2023/07/09 00:50:37;;;;;;;11.83;7.80;;;;;;;-145.18;100.00;46660.41;5067331;28;20085;-65
2023/07/09 00:53:12;;;;;;;11.25;7.40;;;;;;;-145.18;100.00;46662.34;5062533;28;20110;-64
2023/07/09 00:55:42;;;;;;;12.30;7.63;;;;;;;-145.18;100.00;46660.41;5072580;28;20039;-64
2023/07/09 00:58:11;;;;;;;12.83;7.83;;;;;;;-145.18;100.00;46668.22;5073000;28;20027;-64
2023/07/09 01:00:47;;;;;;;12.97;7.40;;;;;;;-145.18;100.00;46666.25;5072916;28;20055;-64
2023/07/09 01:03:21;;;;;;;10.60;7.37;;;;;;;-145.18;100.00;46668.22;5073528;28;20024;-64
2023/07/09 01:05:55;;;;;;;10.40;7.27;;;;;;;-145.18;100.00;46660.41;5072874;28;20074;-64
2023/07/09 01:08:21;;;;;;;10.87;7.30;;;;;;;-145.18;100.00;46664.31;5072825;28;20020;-64
2023/07/09 01:10:46;;;;;;;11.87;7.33;;;;;;;-145.18;100.00;46658.44;5072725;28;20492;-64
2023/07/09 01:13:12;;;;;;;10.77;7.40;;;;;;;-145.18;100.00;46658.44;5073092;28;20126;-64
2023/07/09 01:15:37;;;;;;;12.77;7.03;;;;;;;-145.18;100.00;46668.22;5054701;28;20111;-64
2023/07/09 01:18:04;;;;;;;9.37;7.07;;;;;;;-145.18;100.00;46654.53;5072872;28;20024;-65
2023/07/09 01:20:30;;;;;;;10.27;7.47;;;;;;;-145.18;100.00;46652.59;5072477;28;20024;-64
2023/07/09 01:22:56;;;;;;;13.37;7.60;;;;;;;-145.18;100.00;46656.50;5072714;28;20033;-64
2023/07/09 01:25:23;;;;;;;13.47;7.47;;;;;;;-145.18;100.00;46652.59;5072012;28;20032;-64
2023/07/09 01:27:50;;;;;;;13.17;7.20;;;;;;;-145.18;100.00;46648.69;5072714;28;20024;-64
2023/07/09 01:30:22;;;;;;;10.57;7.40;;;;;;;-145.18;100.00;46654.53;5071243;28;20111;-64
2023/07/09 01:32:55;;;;;;;10.93;6.60;;;;;;;-145.18;100.00;46652.59;5072326;28;20036;-64
2023/07/09 01:35:21;;;;;;;11.47;7.90;;;;;;;-145.18;100.00;46652.59;5072143;28;20032;-64
2023/07/09 01:37:48;;;;;;;12.20;7.07;;;;;;;-145.18;100.00;46654.53;5071580;28;20560;-64
2023/07/09 01:40:17;;;;;;;12.83;7.00;;;;;;;-145.18;100.00;46650.63;5072335;28;20890;-61
2023/07/09 01:42:42;;;;;;;10.53;6.87;;;;;;;-145.18;100.00;46646.72;5071084;28;20032;-61
2023/07/09 01:45:12;;;;;;;16.20;7.60;;;;;;;-145.18;100.00;46646.72;5072279;28;20035;-61
2023/07/09 01:47:38;;;;;;;10.10;6.97;;;;;;;-145.18;100.00;46681.88;5054581;28;20035;-61
2023/07/09 01:50:06;;;;;;;11.13;7.33;;;;;;;-145.18;100.00;46648.69;5072331;28;20082;-61
2023/07/09 01:52:33;;;;;;;12.67;7.07;;;;;;;-145.18;100.00;46656.50;5071928;28;20048;-61
2023/07/09 01:54:58;;;;;;;9.93;7.30;;;;;;;-145.18;100.00;46652.59;5072503;28;20021;-61
2023/07/09 01:57:34;;;;;;;11.90;7.47;;;;;;;-145.18;100.00;46683.84;5072069;28;20081;-61
2023/07/09 02:00:08;;;;;;;11.00;7.63;;;;;;;-145.18;100.00;46660.41;5064697;28;20032;-61
2023/07/09 02:02:35;;;;;;;11.23;7.43;;;;;;;-145.18;100.00;46660.41;5070704;28;20021;-61
2023/07/09 02:05:02;;;;;;;11.63;7.37;;;;;;;-145.18;100.00;46679.94;5072068;28;20438;-61
2023/07/09 02:07:27;;;;;;;11.93;6.40;;;;;;;-145.18;100.00;46660.41;5071950;28;20536;-61
2023/07/09 02:09:53;;;;;;;10.17;7.53;;;;;;;-145.18;100.00;46660.41;5071491;28;20123;-61
2023/07/09 02:12:18;;;;;;;10.43;7.60;;;;;;;-145.18;100.00;46660.41;5072012;28;20108;-61
2023/07/09 02:14:45;;;;;;;8.93;6.53;;;;;;;-145.18;100.00;46660.41;5075461;28;20491;-61
2023/07/09 02:17:12;;;;;;;9.57;7.20;;;;;;;-145.18;100.00;46679.94;5071710;28;20473;-61
2023/07/09 02:19:38;;;;;;;12.77;7.00;;;;;;;-145.18;100.00;46660.41;5066762;28;20036;-61
2023/07/09 02:22:04;;;;;;;8.93;6.63;;;;;;;-145.18;100.00;46660.41;5071160;28;20030;-61
2023/07/09 02:24:29;;;;;;;9.37;7.37;;;;;;;-145.18;100.00;46660.41;5054216;28;20415;-61
2023/07/09 02:26:56;;;;;;;10.87;7.10;;;;;;;-145.18;100.00;46660.41;5071762;28;20095;-61
2023/07/09 02:29:23;;;;;;;10.83;7.50;;;;;;;-145.18;100.00;46658.44;5071884;28;20025;-61
2023/07/09 02:31:50;;;;;;;10.80;7.10;;;;;;;-145.18;100.00;46660.41;5071841;28;20377;-61
2023/07/09 02:34:16;;;;;;;15.20;7.93;;;;;;;-145.18;100.00;46660.41;5071333;28;20499;-61
2023/07/09 02:36:42;;;;;;;11.93;7.97;;;;;;;-145.18;100.00;46660.41;5053830;28;20028;-61
2023/07/09 02:39:12;;;;;;;13.33;8.03;;;;;;;-145.18;100.00;46660.41;5071480;28;20476;-61
2023/07/09 02:41:39;;;;;;;10.53;7.17;;;;;;;-145.18;100.00;46660.41;5071759;28;20227;-61
2023/07/09 02:44:05;;;;;;;9.63;6.90;;;;;;;-145.18;100.00;46660.41;5071523;28;20040;-61
2023/07/09 02:46:31;;;;;;;10.43;7.90;;;;;;;-145.18;100.00;46658.44;5071559;28;20430;-61
2023/07/09 02:48:57;;;;;;;9.13;6.73;;;;;;;-145.18;100.00;46660.41;5071518;28;20032;-61
2023/07/09 02:51:24;;;;;;;13.23;6.70;;;;;;;-145.18;100.00;46660.41;5071840;28;20028;-61
2023/07/09 02:53:49;;;;;;;10.63;6.80;;;;;;;-145.18;100.00;46660.41;5073593;28;20052;-61
2023/07/09 02:56:14;;;;;;;10.53;8.00;;;;;;;-145.18;100.00;46660.41;5075446;28;20039;-61
2023/07/09 02:58:40;;;;;;;14.53;8.30;;;;;;;-145.18;100.00;46660.41;5075151;28;20097;-61
2023/07/09 03:01:05;;;;;;;11.37;7.87;;;;;;;-145.18;100.00;46660.41;5057191;28;20052;-61
2023/07/09 03:03:31;;;;;;;10.40;7.23;;;;;;;-145.18;100.00;46660.41;5075120;28;20131;-61
2023/07/09 03:05:56;;;;;;;11.33;8.30;;;;;;;-145.18;100.00;46660.41;5075388;28;20047;-61
2023/07/09 03:08:22;;;;;;;11.27;8.20;;;;;;;-145.18;100.00;46660.41;5075494;28;20029;-61
2023/07/09 03:10:48;;;;;;;12.60;8.17;;;;;;;-145.18;100.00;46660.41;5075100;28;20036;-60
2023/07/09 03:13:13;;;;;;;11.13;8.33;;;;;;;-145.18;100.00;46660.41;5057330;28;20035;-60
2023/07/09 03:15:38;;;;;;;12.13;8.07;;;;;;;-145.18;100.00;46660.41;5074774;28;20033;-61
2023/07/09 03:18:05;;;;;;;14.40;8.07;;;;;;;-145.18;100.00;46660.41;5074547;28;20032;-60
2023/07/09 03:20:30;;;;;;;11.10;7.80;;;;;;;-145.18;100.00;46660.41;5075340;28;20113;-61
2023/07/09 03:22:56;;;;;;;12.17;8.13;;;;;;;-145.18;100.00;46660.41;5074639;28;20048;-61
2023/07/09 03:25:21;;;;;;;15.10;8.33;;;;;;;-145.18;100.00;46660.41;5075258;28;20035;-61
2023/07/09 03:27:50;;;;;;;12.03;9.00;;;;;;;-145.18;100.00;46660.41;5074914;28;20063;-61
2023/07/09 03:30:15;;;;;;;12.33;8.13;;;;;;;-145.18;100.00;46660.41;5072248;28;20029;-61
2023/07/09 03:32:43;;;;;;;15.10;8.23;;;;;;;-145.18;100.00;46660.41;5075088;28;20025;-61
2023/07/09 03:35:08;;;;;;;10.60;7.70;;;;;;;-145.18;100.00;46660.41;5074303;28;20407;-61
2023/07/09 03:37:34;;;;;;;16.03;8.93;;;;;;;-145.18;100.00;46660.41;5073667;28;20066;-61
2023/07/09 03:39:59;;;;;;;17.73;10.40;;;;;;;-145.18;100.00;46660.41;5074857;28;20090;-61
2023/07/09 03:42:25;;;;;;;14.40;9.23;;;;;;;-145.18;100.00;46660.41;5074506;28;20027;-61
2023/07/09 03:44:50;;;;;;;16.40;9.53;;;;;;;-145.18;100.00;46660.41;5074585;28;20043;-61
2023/07/09 03:47:17;;;;;;;16.07;9.63;;;;;;;-145.18;100.00;46660.41;5073871;28;20484;-61
2023/07/09 03:49:43;;;;;;;14.67;9.73;;;;;;;-145.18;100.00;46660.41;5074806;28;20059;-61
2023/07/09 03:52:09;;;;;;;16.03;10.67;;;;;;;-145.18;100.00;46660.41;5072433;28;20509;-61
2023/07/09 03:54:34;;;;;;;15.70;9.50;;;;;;;-145.18;100.00;46660.41;5074262;28;20114;-61
2023/07/09 03:56:59;;;;;;;16.43;10.63;;;;;;;-145.18;100.00;46660.41;5073865;28;20067;-61
2023/07/09 03:59:25;;;;;;;12.27;9.20;;;;;;;-145.18;100.00;46660.41;5077341;28;20468;-64
2023/07/09 04:01:50;;;;;;;15.60;9.10;;;;;;;-145.18;100.00;46660.41;5060729;28;20062;-64
2023/07/09 04:04:20;;;;;;;11.80;9.03;;;;;;;-145.18;100.00;46660.41;5073421;28;20024;-64
2023/07/09 04:06:46;;;;;;;16.37;10.47;;;;;;;-145.18;100.00;46660.41;5065125;28;20033;-64
2023/07/09 04:09:11;;;;;;;16.53;10.07;;;;;;;-145.18;100.00;46660.41;5056342;28;20036;-64
2023/07/09 04:11:36;;;;;;;17.07;10.87;;;;;;;-145.18;100.00;46660.41;5073686;28;20036;-64
2023/07/09 04:14:02;;;;;;;16.77;10.93;;;;;;;-145.18;100.00;46660.41;5074089;28;20072;-64
2023/07/09 04:16:27;;;;;;;16.63;9.63;;;;;;;-145.18;100.00;46660.41;5074057;28;20040;-64
2023/07/09 04:18:52;;;;;;;16.27;10.03;;;;;;;-145.18;100.00;46660.41;5074347;28;20028;-64
2023/07/09 04:21:18;;;;;;;16.87;11.53;;;;;;;-145.18;100.00;46660.41;5073890;28;20040;-64
2023/07/09 04:23:43;;;;;;;18.17;10.53;;;;;;;-145.18;100.00;46660.41;5066023;28;20032;-64
2023/07/09 04:26:13;;;;;;;14.90;10.83;;;;;;;-145.18;100.00;46660.41;5073668;28;20119;-64
2023/07/09 04:28:38;;;;;;;15.13;10.43;;;;;;;-145.18;100.00;46660.41;5053766;28;20115;-64
2023/07/09 04:31:04;;;;;;;17.20;10.87;;;;;;;-145.18;100.00;46660.41;5074415;28;20571;-64
2023/07/09 04:33:29;;;;;;;16.87;9.77;;;;;;;-145.18;100.00;46660.41;5073828;28;20036;-64
2023/07/09 04:35:55;;;;;;;16.47;9.77;;;;;;;-145.18;100.00;46660.41;5070430;28;20154;-64
2023/07/09 04:38:20;;;;;;;18.63;10.73;;;;;;;-145.18;100.00;46660.41;5074191;28;20031;-64
2023/07/09 04:40:46;;;;;;;26.20;11.10;;;;;;;-145.18;100.00;46660.41;5088542;28;20033;-65
2023/07/09 04:43:12;;;;;;;14.33;10.63;;;;;;;-145.18;100.00;46660.41;5073136;28;20069;-64
2023/07/09 04:45:37;;;;;;;21.87;11.00;;;;;;;-145.18;100.00;46660.41;5074772;28;20020;-64
2023/07/09 04:48:03;;;;;;;12.93;9.83;;;;;;;-145.18;100.00;46660.41;5067575;28;20032;-64
2023/07/09 04:50:28;;;;;;;19.53;11.33;;;;;;;-145.18;100.00;46660.41;5067750;28;20813;-65
2023/07/09 04:52:54;;;;;;;16.30;10.27;;;;;;;-145.18;100.00;46660.41;5071968;28;20048;-64
2023/07/09 04:55:19;;;;;;;16.97;11.47;;;;;;;-145.18;100.00;46660.41;5055156;28;20119;-64
2023/07/09 04:57:45;;;;;;;16.53;11.50;;;;;;;-145.18;100.00;46660.41;5072161;28;20121;-64
2023/07/09 05:00:11;;;;;;;19.00;11.90;;;;;;;-145.18;100.00;46660.41;5078938;28;20111;-64
2023/07/09 05:02:36;;;;;;;17.53;12.17;;;;;;;-145.18;100.00;46660.41;5072947;28;20036;-64
2023/07/09 05:05:02;;;;;;;19.57;12.43;;;;;;;-145.18;100.00;46660.41;5072908;28;20087;-64
2023/07/09 05:07:27;;;;;;;18.53;13.77;;;;;;;-145.18;100.00;46660.41;5073229;28;20503;-64
2023/07/09 05:09:53;;;;;;;16.57;11.93;;;;;;;-145.18;100.00;46636.94;5055321;28;20054;-64
2023/07/09 05:12:20;;;;;;;19.97;11.40;;;;;;;-145.18;100.00;46660.41;5072322;28;20447;-64
2023/07/09 05:14:45;;;;;;;17.63;12.57;;;;;;;-145.18;100.00;46660.41;5063907;28;20511;-64
2023/07/09 05:17:10;;;;;;;17.53;11.37;;;;;;;-145.18;100.00;46636.94;5072385;28;20029;-62
2023/07/09 05:19:36;;;;;;;18.80;11.83;;;;;;;-145.18;100.00;46638.91;5072316;28;20044;-62
2023/07/09 05:22:02;;;;;;;14.70;11.70;;;;;;;-145.18;100.00;46638.91;5037445;28;20037;-62
2023/07/09 05:24:27;;;;;;;18.80;11.83;;;;;;;-145.18;100.00;46640.88;5054817;28;20020;-62
2023/07/09 05:26:55;;;;;;;17.40;12.20;;;;;;;-145.18;100.00;46676.03;5072563;28;20081;-63
2023/07/09 05:29:20;;;;;;;18.33;11.90;;;;;;;-145.18;100.00;46642.81;5072404;28;20024;-63
2023/07/09 05:31:45;;;;;;;18.93;12.87;;;;;;;-145.18;100.00;46638.91;5087594;28;20075;-63
2023/07/09 05:34:11;;;;;;;19.33;12.73;;;;;;;-145.18;100.00;46638.91;5072712;28;20029;-62
2023/07/09 05:36:36;;;;;;;16.33;12.30;;;;;;;-145.18;100.00;46640.88;5072035;28;20107;-62
2023/07/09 05:39:01;;;;;;;23.73;12.77;;;;;;;-145.18;100.00;46640.88;5072223;28;20025;-62
2023/07/09 05:41:27;;;;;;;20.67;12.57;;;;;;;-145.18;100.00;46644.78;5072026;28;20032;-63
2023/07/09 05:43:52;;;;;;;18.27;12.52;;;;;;;-145.18;100.00;46644.78;5072355;28;20039;-62
2023/07/09 05:46:19;;;;;;;19.97;12.10;;;;;;;-145.18;100.00;46642.81;5065025;28;20029;-63
2023/07/09 05:48:45;;;;;;;20.03;13.53;;;;;;;-145.18;100.00;46650.63;5064734;28;20491;-62
2023/07/09 05:51:10;;;;;;;20.63;13.20;;;;;;;-145.18;100.00;46648.69;5065079;28;20021;-63
2023/07/09 05:53:36;;;;;;;21.63;13.67;;;;;;;-145.18;100.00;46640.88;5066803;28;20051;-63
2023/07/09 05:56:01;;;;;;;21.50;13.30;;;;;;;-145.18;100.00;46638.91;5064826;28;20585;-63
2023/07/09 05:58:27;;;;;;;16.03;11.90;;;;;;;-145.18;100.00;46638.91;5078981;28;20037;-63
2023/07/09 06:00:53;;;;;;;23.20;11.18;;;;;;;-145.18;100.00;46646.72;5042568;28;20037;-62
2023/07/09 06:03:21;;;;;;;18.98;11.35;;;;;;;-145.18;100.00;46638.91;5076650;28;20021;-63
2023/07/09 06:05:49;;;;;;;15.90;11.83;;;;;;;-145.18;100.00;46640.88;5068884;28;20446;-63
2023/07/09 06:08:16;;;;;;;20.27;11.95;;;;;;;-145.18;100.00;46636.94;5070815;28;20074;-63
2023/07/09 06:11:00;;;;;;;19.27;12.40;;;;;;;-145.18;100.00;46646.72;5064447;28;20439;-63
2023/07/09 06:13:27;;;;;;;25.80;12.38;;;;;;;-145.18;100.00;46644.78;5063969;28;20024;-63
2023/07/09 06:15:54;;;;;;;17.47;11.07;;;;;;;-145.18;100.00;46650.63;5070906;28;20032;-63
2023/07/09 06:18:21;;;;;;;18.83;12.20;;;;;;;-145.18;100.00;46656.50;5063128;28;20496;-62
2023/07/09 06:20:55;;;;;;;18.50;11.82;;;;;;;-145.18;100.00;46660.41;5073356;28;20561;-63
2023/07/09 06:23:20;;;;;;;18.05;12.35;;;;;;;-145.18;100.00;46660.41;5069494;28;20557;-63
2023/07/09 06:25:47;;;;;;;17.73;13.13;;;;;;;-145.18;100.00;46672.13;5070521;28;20024;-63
2023/07/09 06:28:21;;;;;;;20.65;13.98;;;;;;;-145.18;100.00;46672.13;5067945;28;20458;-62
2023/07/09 06:30:47;;;;;;;22.02;15.20;;;;;;;-145.18;100.00;46670.16;5077729;28;20025;-63
2023/07/09 06:33:14;;;;;;;22.63;16.95;;;;;;;-145.18;100.00;46672.13;5070053;28;20102;-63
2023/07/09 06:35:46;;;;;;;27.05;15.90;;;;;;;-145.18;100.00;46672.13;5058398;28;20034;-63
2023/07/09 06:38:11;;;;;;;28.30;18.90;;;;;;;-145.18;100.00;46668.22;5066028;28;20126;-63
2023/07/09 06:40:36;;;;;;;27.33;17.67;;;;;;;-145.18;100.00;46650.63;5065846;28;20040;-63
2023/07/09 06:43:02;;;;;;;24.17;15.65;;;;;;;-145.18;100.00;46568.59;5069722;28;20039;-63
2023/07/09 06:45:27;;;;;;;27.95;15.02;;;;;;;-145.18;100.00;46531.47;5069061;28;20044;-63
2023/07/09 06:47:53;;;;;;;24.15;16.02;;;;;;;-145.18;100.00;46529.53;5070345;28;20029;-63
2023/07/09 06:50:18;;;;;;;23.98;15.27;;;;;;;-145.18;100.00;46521.72;5068524;28;20037;-63
2023/07/09 06:52:44;;;;;;;24.90;15.88;;;;;;;-145.18;100.00;46558.81;5063086;28;20076;-63
2023/07/09 06:55:09;;;;;;;20.73;15.82;;;;;;;-145.18;100.00;46648.69;5066105;28;20032;-63
2023/07/09 06:57:35;;;;;;;27.55;15.90;;;;;;;-145.18;100.00;46644.78;5072273;28;20081;-63
2023/07/09 07:00:00;;;;;;;25.92;15.32;;;;;;;-145.18;100.00;46640.88;5073887;28;20025;-63
2023/07/09 07:02:25;;;;;;;23.00;14.07;;;;;;;-145.18;100.00;46533.44;5073980;28;20101;-63
2023/07/09 07:04:51;;;;;;;18.27;13.13;;;;;;;-145.18;100.00;46529.53;5071397;28;20111;-63
2023/07/09 07:07:16;;;;;;;16.45;10.35;;;;;;;-145.18;100.00;46527.56;5052804;28;20024;-63
2023/07/09 07:09:42;;;;;;;13.52;9.00;;;;;;;-145.18;100.00;46513.91;5070216;28;20035;-63
2023/07/09 07:12:07;;;;;;;14.77;9.27;;;;;;;-145.18;100.00;46513.91;5070831;28;20040;-63
2023/07/09 07:14:33;;;;;;;15.55;9.52;;;;;;;-145.18;100.00;46506.09;5044862;28;20036;-63
2023/07/09 07:16:58;;;;;;;12.27;8.40;;;;;;;-145.18;100.00;46494.38;5070999;28;20032;-62
2023/07/09 07:19:24;;;;;;;15.32;8.73;;;;;;;-145.18;100.00;46492.41;5053507;28;20056;-63
2023/07/09 07:21:49;;;;;;;13.80;9.07;;;;;;;-145.18;100.00;46478.75;5070795;28;20029;-63
2023/07/09 07:24:14;;;;;;;14.68;9.32;;;;;;;-145.18;100.00;46496.31;5069123;28;20025;-63
2023/07/09 07:26:40;;;;;;;19.17;9.88;;;;;;;-145.18;100.00;46488.50;5070688;28;20387;-63
2023/07/09 07:29:05;;;;;;;18.58;9.10;;;;;;;-145.18;100.00;46478.75;5071152;28;20060;-62
2023/07/09 07:31:30;;;;;;;15.18;10.02;;;;;;;-145.18;100.00;46488.50;5070976;28;20032;-62
2023/07/09 07:33:56;;;;;;;16.60;9.30;;;;;;;-145.18;100.00;46478.75;5071447;28;20395;-61
2023/07/09 07:36:21;;;;;;;14.10;9.40;;;;;;;-145.18;100.00;46504.13;5071104;28;20818;-61
2023/07/09 07:38:47;;;;;;;16.67;9.80;;;;;;;-145.18;100.00;46465.06;5070646;28;20090;-61
2023/07/09 07:41:12;;;;;;;16.42;9.18;;;;;;;-145.18;100.00;46470.94;5073956;28;20028;-62
2023/07/09 07:43:37;;;;;;;14.10;9.77;;;;;;;-145.18;100.00;46482.66;5074373;28;20499;-62
2023/07/09 07:46:03;;;;;;;15.98;10.52;;;;;;;-145.18;100.00;46480.69;5074394;28;20029;-62
2023/07/09 07:48:28;;;;;;;15.98;9.88;;;;;;;-145.18;100.00;46496.31;5056078;28;20029;-62
2023/07/09 07:51:04;;;;;;;13.15;8.45;;;;;;;-145.18;100.00;46467.03;5072642;28;20115;-62
2023/07/09 07:53:32;;;;;;;17.65;8.48;;;;;;;-145.18;100.00;46726.81;5073550;28;20110;-61
2023/07/09 07:55:58;;;;;;;12.35;7.45;;;;;;;-145.18;100.00;47000.28;5055994;28;20589;-62
2023/07/09 07:58:23;;;;;;;15.60;7.80;;;;;;;-145.18;100.00;47010.06;5072750;28;20029;-62
2023/07/09 08:00:49;;;;;;;16.50;8.07;;;;;;;-145.18;100.00;47039.34;5073604;28;20484;-62
2023/07/09 08:03:14;;;;;;;13.55;8.13;;;;;;;-145.18;100.00;46465.06;5055365;28;20032;-62
2023/07/09 08:05:40;;;;;;;13.20;8.85;;;;;;;-145.18;100.00;46791.28;5074604;28;20040;-62
2023/07/09 08:08:05;;;;;;;17.25;9.25;;;;;;;-145.18;100.00;46500.22;5070238;28;20388;-62
2023/07/09 08:10:30;;;;;;;12.80;8.75;;;;;;;-145.18;100.00;46486.56;5073558;28;20040;-62
2023/07/09 08:12:57;;;;;;;11.35;8.93;;;;;;;-145.18;100.00;46496.31;5073438;28;20111;-61
2023/07/09 08:15:27;;;;;;;16.25;10.27;;;;;;;-145.18;100.00;46476.78;5074193;28;20032;-61
2023/07/09 08:17:53;;;;;;;12.43;9.35;;;;;;;-145.18;100.00;46494.38;5073362;28;20020;-61
2023/07/09 08:20:18;;;;;;;14.88;9.02;;;;;;;-145.18;100.00;46484.59;5055647;28;20070;-62
2023/07/09 08:22:43;;;;;;;15.18;9.13;;;;;;;-145.18;100.00;46490.47;5074036;28;20028;-61
2023/07/09 08:25:09;;;;;;;16.05;8.88;;;;;;;-145.18;100.00;46494.38;5073082;28;20124;-61
2023/07/09 08:27:34;;;;;;;15.00;9.82;;;;;;;-145.18;100.00;46504.13;5073580;28;20499;-61
2023/07/09 08:30:00;;;;;;;14.25;9.68;;;;;;;-145.18;100.00;46496.31;5073767;28;20538;-61
2023/07/09 08:32:25;;;;;;;17.45;10.63;;;;;;;-145.18;100.00;46511.94;5074093;28;20040;-61
2023/07/09 08:34:50;;;;;;;17.42;12.32;;;;;;;-145.18;100.00;46496.31;5073892;28;20033;-61
2023/07/09 08:37:16;;;;;;;20.40;12.82;;;;;;;-145.18;100.00;46511.94;5073142;28;20052;-61
2023/07/09 08:39:41;;;;;;;20.70;13.82;;;;;;;-145.18;100.00;46492.41;5073213;28;20036;-63
2023/07/09 08:42:13;;;;;;;20.15;13.70;;;;;;;-145.18;100.00;46492.41;5088898;28;20719;-63
2023/07/09 08:44:41;;;;;;;18.13;13.52;;;;;;;-145.18;100.00;46502.19;5072996;28;20059;-65
2023/07/09 08:47:47;;;;;;;19.45;13.80;;;;;;;-145.18;100.00;46490.47;5073201;28;20060;-63
2023/07/09 08:50:18;;;;;;;17.00;12.23;;;;;;;-145.18;100.00;46488.50;5068559;28;20070;-62
2023/07/09 08:52:46;;;;;;;19.95;13.55;;;;;;;-145.18;100.00;46482.66;5072904;28;20492;-63
2023/07/09 08:55:15;;;;;;;19.38;12.80;;;;;;;-145.18;100.00;46478.75;5072668;28;20051;-63
2023/07/09 08:57:45;;;;;;;18.67;11.68;;;;;;;-145.18;100.00;46486.56;5072943;28;20025;-63
2023/07/09 09:00:22;;;;;;;19.17;12.18;;;;;;;-145.18;100.00;46470.94;5072961;28;20150;-63
2023/07/09 09:02:56;;;;;;;18.50;12.35;;;;;;;-145.18;100.00;46476.78;5073004;28;20031;-63
2023/07/09 09:05:23;;;;;;;18.13;12.55;;;;;;;-145.18;100.00;46486.56;5072721;28;20024;-63
2023/07/09 09:08:05;;;;;;;19.73;13.23;;;;;;;-145.18;100.00;46472.88;5065605;28;20031;-63
2023/07/09 09:10:46;;;;;;;18.05;11.57;;;;;;;-145.18;100.00;46480.69;5072623;28;20024;-63
2023/07/09 09:13:14;;;;;;;17.30;11.93;;;;;;;-145.18;100.00;46488.50;5070145;28;20032;-63
2023/07/09 09:15:43;;;;;;;15.82;11.25;;;;;;;-145.18;100.00;46482.66;5069690;28;20055;-63
2023/07/09 09:18:27;;;;;;;21.33;11.80;;;;;;;-145.18;100.00;46441.63;5072023;28;20029;-63
2023/07/09 09:20:59;;;;;;;20.63;13.00;;;;;;;-145.18;100.00;46453.34;5068875;28;20052;-63
2023/07/09 09:23:36;;;;;;;17.63;12.35;;;;;;;-145.18;100.00;46478.75;5069978;28;20024;-63
2023/07/09 09:26:04;;;;;;;20.20;13.35;;;;;;;-145.18;100.00;46500.22;5062142;28;20446;-63
2023/07/09 09:28:35;;;;;;;18.38;12.18;;;;;;;-145.18;100.00;46468.97;5071809;28;20127;-63
2023/07/09 09:31:01;;;;;;;17.15;11.65;;;;;;;-145.18;100.00;46426.00;5072477;28;20032;-64
2023/07/09 09:33:37;;;;;;;18.17;12.75;;;;;;;-145.18;100.00;46453.34;5054035;28;20054;-63
2023/07/09 09:36:04;;;;;;;17.98;11.27;;;;;;;-145.18;100.00;46459.22;5071628;28;20020;-63
2023/07/09 09:38:29;;;;;;;14.63;8.98;;;;;;;-145.18;100.00;46457.25;5059191;28;20024;-63
2023/07/09 09:41:00;;;;;;;16.00;10.40;;;;;;;-145.18;100.00;46978.81;5071238;28;20051;-63
2023/07/09 09:43:32;;;;;;;13.75;9.90;;;;;;;-145.18;100.00;46990.53;5071980;28;20031;-64
2023/07/09 09:46:00;;;;;;;16.55;11.20;;;;;;;-145.18;100.00;46687.75;5071969;28;20078;-63
2023/07/09 09:48:30;;;;;;;15.10;10.32;;;;;;;-145.18;100.00;46677.97;5067152;28;20468;-63
2023/07/09 09:51:00;;;;;;;18.10;11.32;;;;;;;-145.18;100.00;46820.56;5068752;28;20017;-62
2023/07/09 09:53:28;;;;;;;17.35;11.88;;;;;;;-145.18;100.00;46851.81;5071835;28;20024;-62
2023/07/09 09:55:56;;;;;;;14.27;10.15;;;;;;;-145.18;100.00;46996.38;5071792;28;20036;-62
2023/07/09 09:58:28;;;;;;;15.30;11.07;;;;;;;-145.18;100.00;46996.38;5071826;28;20032;-62
2023/07/09 10:00:57;;;;;;;15.73;10.35;;;;;;;-145.18;100.00;46996.38;5072508;28;20027;-62
2023/07/09 10:03:34;;;;;;;13.15;9.25;;;;;;;-145.18;100.00;46937.78;5077330;28;20045;-62
2023/07/09 10:06:09;;;;;;;12.60;8.80;;;;;;;-145.18;100.00;46955.34;5072341;28;20119;-62
2023/07/09 10:09:19;;;;;;;15.88;9.60;;;;;;;-145.18;100.00;46933.88;5062879;28;20044;-62
2023/07/09 10:11:48;;;;;;;12.65;8.77;;;;;;;-145.18;100.00;46953.41;5049674;28;20040;-62
2023/07/09 10:14:19;;;;;;;19.17;11.10;;;;;;;-145.18;100.00;46978.81;5071861;28;20027;-62
2023/07/09 10:16:49;;;;;;;20.08;12.88;;;;;;;-145.18;100.00;46670.16;5071690;28;20036;-62
2023/07/09 10:19:30;;;;;;;20.17;13.85;;;;;;;-145.18;100.00;46492.41;5071804;28;20035;-62
2023/07/09 10:22:10;;;;;;;20.60;13.73;;;;;;;-145.18;100.00;46455.31;5069913;28;20048;-62
2023/07/09 10:24:46;;;;;;;23.70;15.10;;;;;;;-145.18;100.00;46445.53;5071275;28;20468;-62
2023/07/09 10:27:19;;;;;;;22.45;14.88;;;;;;;-145.18;100.00;46468.97;5066142;28;20078;-62
2023/07/09 10:30:09;;;;;;;19.73;15.50;;;;;;;-145.18;100.00;46463.13;5067529;28;20062;-61
2023/07/09 10:32:56;;;;;;;22.00;14.63;;;;;;;-145.18;100.00;46467.03;5072753;28;20016;-62
2023/07/09 10:35:32;;;;;;;21.15;15.30;;;;;;;-145.18;100.00;46467.03;5066379;28;20556;-62
2023/07/09 10:38:18;;;;;;;22.48;16.02;;;;;;;-145.18;100.00;46433.81;5071420;28;20048;-63
2023/07/09 10:40:49;;;;;;;23.20;16.13;;;;;;;-145.18;100.00;46443.59;5071565;28;20024;-62
2023/07/09 10:43:30;;;;;;;23.35;15.85;;;;;;;-145.18;100.00;46480.69;5068122;28;20099;-62
2023/07/09 10:46:02;;;;;;;26.95;17.63;;;;;;;-145.18;100.00;46435.78;5074797;28;20025;-62
2023/07/09 10:48:42;;;;;;;24.08;15.65;;;;;;;-145.18;100.00;46441.63;5066323;28;20028;-62
2023/07/09 10:51:32;;;;;;;22.83;16.13;;;;;;;-145.18;100.00;46420.13;5067268;28;20025;-62
2023/07/09 10:54:04;;;;;;;21.27;14.82;;;;;;;-145.18;100.00;46439.69;5071314;28;20028;-62
2023/07/09 10:56:35;;;;;;;23.33;15.50;;;;;;;-145.18;100.00;46453.34;5076329;28;20020;-62
2023/07/09 10:59:26;;;;;;;20.35;15.85;;;;;;;-145.18;100.00;46447.50;5063324;28;20074;-62
2023/07/09 11:02:08;;;;;;;24.50;16.75;;;;;;;-145.18;100.00;46447.50;5069269;28;20159;-62